Time;durP1;ratioP1;P1;durP2;ratioP2;P2;SDS_P1;SDS_P2;PMS_P1;PMS_P2;Temp;Humidity;BMP_temperature;BMP_pressure;BME280_temperature;BME280_humidity;BME280_pressure;Samples;Min_cycle;Max_cycle;Signal;HPM_P1;HPM_P2
2022/10/23 00:01:18;;;;;;;;;0.00;0.00;;;;;22.45;43.36;99439.66;5038678;28;45402;-72
2022/10/23 00:03:45;;;;;;;;;0.00;0.00;;;;;22.53;43.18;99434.94;5039276;28;45480;-73
2022/10/23 00:06:12;;;;;;;;;0.00;0.00;;;;;22.56;43.35;99437.50;5039141;28;45386;-73
2022/10/23 00:08:38;;;;;;;;;0.67;0.00;;;;;22.49;43.87;99443.09;5036777;28;46676;-72
2022/10/23 00:11:09;;;;;;;;;0.00;0.00;;;;;22.52;43.96;99429.66;5039042;28;45416;-72
2022/10/23 00:13:35;;;;;;;;;0.67;0.00;;;;;22.46;43.74;99404.13;5038918;28;45493;-73
2022/10/23 00:16:01;;;;;;;;;0.00;0.00;;;;;22.40;43.59;99393.72;5037647;28;45194;-73
2022/10/23 00:18:27;;;;;;;;;0.00;0.00;;;;;22.43;43.94;99405.13;5038718;28;46619;-72
2022/10/23 00:20:52;;;;;;;;;0.00;0.00;;;;;22.45;44.02;99391.75;5037413;28;45289;-73
2022/10/23 00:23:18;;;;;;;;;0.00;0.00;;;;;22.41;43.87;99412.28;5037562;28;45425;-73
2022/10/23 00:25:43;;;;;;;;;0.00;0.00;;;;;22.33;44.07;99395.75;5037206;28;45570;-72
2022/10/23 00:28:09;;;;;;;;;0.00;0.00;;;;;22.36;44.74;99411.63;5038168;28;46563;-72
2022/10/23 00:30:35;;;;;;;;;0.00;0.00;;;;;22.22;44.72;99403.22;5038660;28;45396;-72
2022/10/23 00:33:00;;;;;;;;;1.00;0.00;;;;;22.26;45.06;99426.16;5038658;28;45569;-73
2022/10/23 00:35:26;;;;;;;;;1.00;1.00;;;;;22.17;44.94;99406.03;5038705;28;45600;-73
2022/10/23 00:37:51;;;;;;;;;0.00;0.00;;;;;22.19;45.38;99408.66;5038780;28;46210;-72
2022/10/23 00:40:17;;;;;;;;;0.00;0.00;;;;;22.20;45.34;99407.72;5036979;28;45428;-73
2022/10/23 00:42:43;;;;;;;;;1.00;1.00;;;;;22.24;45.48;99388.09;5037012;28;45311;-73
2022/10/23 00:45:22;;;;;;;;;0.00;0.00;;;;;22.00;45.56;99379.19;5036882;28;45579;-73
2022/10/23 00:47:48;;;;;;;;;0.00;0.00;;;;;22.18;45.40;99414.88;5038436;28;45593;-73
2022/10/23 00:50:15;;;;;;;;;1.00;0.33;;;;;22.23;45.51;99415.59;5036954;28;45451;-72
2022/10/23 00:52:49;;;;;;;;;1.00;1.00;;;;;22.27;45.57;99401.28;5038487;28;45337;-72
2022/10/23 00:55:17;;;;;;;;;0.00;0.00;;;;;22.21;45.55;99397.03;5037100;28;45229;-72
2022/10/23 00:57:44;;;;;;;;;1.33;0.33;;;;;22.25;45.78;99397.81;5037948;28;45507;-72
2022/10/23 01:00:24;;;;;;;;;1.67;1.00;;;;;22.23;45.94;99410.28;5038119;28;45291;-72
2022/10/23 01:02:51;;;;;;;;;1.00;1.00;;;;;22.16;45.90;99395.44;5038215;28;45275;-72
2022/10/23 01:05:17;;;;;;;;;1.67;1.00;;;;;22.25;45.55;99395.16;5036901;28;45261;-72
2022/10/23 01:08:05;;;;;;;;;1.00;1.00;;;;;22.28;45.25;99391.50;5037880;28;46521;-72
2022/10/23 01:10:43;;;;;;;;;0.00;0.00;;;;;22.26;45.97;99393.38;5038075;28;45525;-73
2022/10/23 01:13:18;;;;;;;;;1.00;1.00;;;;;22.19;46.10;99388.22;5038141;28;45399;-72
2022/10/23 01:15:52;;;;;;;;;2.00;1.00;;;;;22.27;45.80;99381.81;5038208;28;45311;-72
2022/10/23 01:18:36;;;;;;;;;1.33;1.00;;;;;22.09;45.56;99365.56;5037772;28;45204;-73
2022/10/23 01:21:17;;;;;;;;;0.00;0.00;;;;;22.21;45.99;99381.06;5037603;28;45534;-72
2022/10/23 01:24:04;;;;;;;;;1.00;1.00;;;;;22.23;45.94;99383.69;5036586;28;45526;-72
2022/10/23 01:26:53;;;;;;;;;1.00;1.00;;;;;22.26;45.53;99391.56;5036467;28;45356;-73
2022/10/23 01:29:28;;;;;;;;;1.00;1.00;;;;;22.32;45.07;99380.72;5036222;28;46313;-73
2022/10/23 01:32:11;;;;;;;;;2.00;1.67;;;;;22.18;45.34;99370.56;5037832;28;45351;-73
2022/10/23 01:34:43;;;;;;;;;1.00;0.00;;;;;22.25;45.86;99376.53;5037874;28;45575;-73
2022/10/23 01:37:12;;;;;;;;;0.67;0.67;;;;;22.27;45.78;99371.16;5036737;28;45973;-73
2022/10/23 01:39:44;;;;;;;;;1.00;1.00;;;;;22.38;45.23;99376.94;5037204;28;45450;-73
2022/10/23 01:42:15;;;;;;;;;1.00;1.00;;;;;22.28;45.15;99360.44;5037425;28;45256;-72
2022/10/23 01:44:52;;;;;;;;;1.00;0.00;;;;;22.36;45.48;99387.66;5037530;28;45492;-72
2022/10/23 01:47:22;;;;;;;;;0.00;0.00;;;;;22.45;45.22;99394.44;5037838;28;45346;-73
2022/10/23 01:49:51;;;;;;;;;2.00;1.33;;;;;22.40;45.15;99391.06;5037284;28;45370;-73
2022/10/23 01:52:18;;;;;;;;;1.33;0.33;;;;;22.20;45.45;99373.13;5037085;28;45414;-72
2022/10/23 01:54:46;;;;;;;;;1.00;1.00;;;;;22.24;45.27;99359.72;5037018;28;45552;-72
2022/10/23 01:57:17;;;;;;;;;1.67;1.00;;;;;22.29;45.28;99359.53;5037362;28;45576;-72
2022/10/23 01:59:49;;;;;;;;;1.00;1.00;;;;;22.21;45.31;99334.97;5037135;28;45407;-72
2022/10/23 02:02:17;;;;;;;;;2.00;1.00;;;;;22.43;44.58;99357.22;5035996;28;45474;-73
2022/10/23 02:05:01;;;;;;;;;2.00;1.00;;;;;22.42;44.82;99366.16;5037112;28;45364;-73
2022/10/23 02:07:27;;;;;;;;;1.67;1.00;;;;;22.27;44.74;99328.59;5034029;28;45252;-73
2022/10/23 02:09:53;;;;;;;;;2.00;1.00;;;;;22.36;44.38;99326.47;5035722;28;46246;-72
2022/10/23 02:12:43;;;;;;;;;1.33;0.67;;;;;22.51;44.70;99354.28;5035327;28;45528;-73
2022/10/23 02:15:13;;;;;;;;;2.00;1.00;;;;;22.51;44.19;99348.09;5037139;28;45503;-72
2022/10/23 02:18:06;;;;;;;;;1.00;1.00;;;;;22.58;43.87;99354.91;5036888;28;45478;-73
2022/10/23 02:20:44;;;;;;;;;1.00;1.00;;;;;22.43;44.17;99319.13;5036851;28;45505;-74
2022/10/23 02:23:48;;;;;;;;;2.00;1.00;;;;;22.52;43.92;99336.50;5036839;28;45522;-73
2022/10/23 02:26:22;;;;;;;;;0.00;0.00;;;;;22.55;44.33;99334.59;5032369;28;45630;-72
2022/10/23 02:28:58;;;;;;;;;1.00;0.00;;;;;22.55;44.28;99326.63;5035830;28;45430;-73
2022/10/23 02:31:24;;;;;;;;;2.00;0.00;;;;;22.51;43.91;99313.50;5036797;28;46228;-76
2022/10/23 02:33:50;;;;;;;;;0.00;0.00;;;;;22.58;44.20;99309.66;5040316;28;45500;-73
2022/10/23 02:36:18;;;;;;;;;2.00;1.00;;;;;22.45;43.63;99282.66;5040526;28;45231;-73
2022/10/23 02:38:44;;;;;;;;;2.00;1.00;;;;;22.61;43.83;99331.69;5040585;28;45391;-72
2022/10/23 02:41:12;;;;;;;;;0.00;0.00;;;;;22.71;44.11;99336.69;5038891;28;46237;-73
2022/10/23 02:44:06;;;;;;;;;1.00;1.00;;;;;22.57;43.99;99314.13;5038958;28;45487;-73
2022/10/23 02:46:49;;;;;;;;;1.00;0.33;;;;;22.65;43.70;99303.16;5040636;28;45318;-72
2022/10/23 02:49:35;;;;;;;;;0.00;0.00;;;;;22.60;43.77;99295.38;5038990;28;45570;-73
2022/10/23 02:52:16;;;;;;;;;3.00;1.00;;;;;22.70;43.83;99300.31;5036293;28;45540;-73
2022/10/23 02:55:10;;;;;;;;;1.00;0.00;;;;;22.54;44.01;99276.09;5038729;28;45348;-73
2022/10/23 02:57:50;;;;;;;;;1.67;0.67;;;;;22.76;44.11;99305.41;5037446;28;45524;-72
2022/10/23 03:00:21;;;;;;;;;0.33;0.33;;;;;22.76;43.92;99286.75;5040070;28;45488;-73
2022/10/23 03:03:04;;;;;;;;;1.00;0.67;;;;;22.71;44.31;99278.97;5039723;28;45963;-72
2022/10/23 03:05:34;;;;;;;;;0.00;0.00;;;;;22.57;44.40;99283.97;5040202;28;45529;-73
2022/10/23 03:08:03;;;;;;;;;0.00;0.00;;;;;22.56;44.61;99285.78;5040364;28;45564;-73
2022/10/23 03:10:29;;;;;;;;;0.67;0.67;;;;;22.68;43.84;99304.84;5038928;28;45645;-73
2022/10/23 03:12:55;;;;;;;;;1.00;1.00;;;;;22.39;44.46;99257.16;5039396;28;45518;-73
2022/10/23 03:15:21;;;;;;;;;4.00;3.00;;;;;22.15;44.10;99211.06;5038243;28;45478;-73
2022/10/23 03:17:46;;;;;;;;;2.67;0.00;;;;;22.47;43.76;99235.56;5039971;28;45407;-72
2022/10/23 03:20:12;;;;;;;;;1.00;0.00;;;;;22.67;43.99;99277.34;5039925;28;45175;-73
2022/10/23 03:22:38;;;;;;;;;0.00;0.00;;;;;22.44;43.54;99249.88;5039698;28;45335;-73
2022/10/23 03:25:04;;;;;;;;;0.67;0.67;;;;;22.40;44.30;99240.28;5038569;28;45480;-73
2022/10/23 03:27:30;;;;;;;;;0.00;0.00;;;;;22.64;44.10;99280.13;5039809;28;45763;-72
2022/10/23 03:29:56;;;;;;;;;1.00;0.00;;;;;22.61;44.22;99272.28;5039701;28;45718;-73
2022/10/23 03:32:21;;;;;;;;;0.00;0.00;;;;;22.53;44.02;99245.09;5037580;28;46340;-73
2022/10/23 03:34:47;;;;;;;;;1.00;1.00;;;;;22.64;43.46;99245.53;5038119;28;45439;-72
2022/10/23 03:37:12;;;;;;;;;0.00;0.00;;;;;22.63;43.34;99251.78;5038209;28;45477;-73
2022/10/23 03:39:38;;;;;;;;;0.00;0.00;;;;;22.69;43.92;99254.19;5039706;28;45541;-72
2022/10/23 03:42:04;;;;;;;;;1.00;1.00;;;;;22.60;43.74;99247.47;5039350;28;45505;-72
2022/10/23 03:44:33;;;;;;;;;0.33;0.33;;;;;22.61;43.87;99246.53;5037602;28;45157;-73
2022/10/23 03:46:58;;;;;;;;;0.00;0.00;;;;;22.56;43.67;99244.97;5039549;28;45297;-73
2022/10/23 03:49:24;;;;;;;;;1.00;1.00;;;;;22.58;43.74;99248.44;5039501;28;45394;-72
2022/10/23 03:51:51;;;;;;;;;0.00;0.00;;;;;22.57;43.35;99226.28;5037754;28;47174;-72
2022/10/23 03:54:25;;;;;;;;;0.33;0.00;;;;;22.70;43.28;99263.94;5039392;28;45430;-74
2022/10/23 03:56:51;;;;;;;;;1.00;0.00;;;;;22.63;43.32;99263.31;5038089;28;45244;-73
2022/10/23 03:59:17;;;;;;;;;0.33;0.33;;;;;22.30;43.67;99208.75;5039473;28;45683;-73
2022/10/23 04:01:42;;;;;;;;;0.00;0.00;;;;;22.53;43.89;99250.44;5037354;28;46289;-72
2022/10/23 04:04:08;;;;;;;;;0.00;0.00;;;;;22.28;43.65;99214.13;5038615;28;45478;-73
2022/10/23 04:06:34;;;;;;;;;0.00;0.00;;;;;22.34;43.82;99236.97;5039188;28;45477;-72
2022/10/23 04:09:00;;;;;;;;;1.00;1.00;;;;;22.66;42.99;99264.09;5039323;28;45185;-73
2022/10/23 04:11:25;;;;;;;;;1.00;1.00;;;;;22.53;43.63;99255.75;5038518;28;45279;-73
2022/10/23 04:13:51;;;;;;;;;0.67;0.67;;;;;22.62;43.51;99266.91;5037547;28;45314;-72
2022/10/23 04:16:17;;;;;;;;;0.00;0.00;;;;;22.67;44.16;99273.84;5038874;28;45323;-73
2022/10/23 04:18:43;;;;;;;;;1.67;1.67;;;;;22.43;43.73;99233.97;5037418;28;45322;-73
2022/10/23 04:21:09;;;;;;;;;0.33;0.00;;;;;22.63;43.76;99252.66;5037256;28;48149;-73
2022/10/23 04:23:34;;;;;;;;;2.00;1.00;;;;;22.68;44.03;99254.25;5038653;28;45252;-72
2022/10/23 04:26:00;;;;;;;;;1.00;0.67;;;;;22.66;44.11;99256.13;5036961;28;45312;-72
2022/10/23 04:28:26;;;;;;;;;0.00;0.00;;;;;22.73;43.90;99261.13;5037390;28;45684;-73
2022/10/23 04:30:52;;;;;;;;;1.00;0.00;;;;;22.68;43.32;99238.28;5038133;28;46226;-73
2022/10/23 04:33:17;;;;;;;;;1.67;0.00;;;;;22.71;43.41;99246.16;5036860;28;45289;-72
2022/10/23 04:35:43;;;;;;;;;1.00;0.00;;;;;22.63;43.72;99209.22;5038106;28;45301;-73
2022/10/23 04:38:09;;;;;;;;;1.00;1.00;;;;;22.69;43.56;99219.59;5037587;28;45244;-72
2022/10/23 04:40:34;;;;;;;;;1.00;0.67;;;;;22.68;43.16;99214.34;5036756;28;46979;-72
2022/10/23 04:43:00;;;;;;;;;2.00;0.67;;;;;22.72;43.62;99240.78;5038070;28;45352;-72
2022/10/23 04:45:25;;;;;;;;;2.00;0.67;;;;;22.66;43.55;99213.53;5036716;28;45462;-73
2022/10/23 04:47:52;;;;;;;;;0.33;0.00;;;;;22.65;43.25;99218.00;5038340;28;45468;-72
2022/10/23 04:50:18;;;;;;;;;3.00;1.67;;;;;22.61;43.19;99208.41;5038092;28;46621;-72
2022/10/23 04:52:44;;;;;;;;;1.33;1.00;;;;;22.59;43.35;99212.94;5037911;28;45376;-72
2022/10/23 04:55:10;;;;;;;;;0.00;0.00;;;;;22.70;43.33;99233.78;5038032;28;45398;-72
2022/10/23 04:57:35;;;;;;;;;0.00;0.00;;;;;22.67;43.80;99221.47;5038396;28;45976;-72
2022/10/23 05:00:06;;;;;;;;;0.00;0.00;;;;;22.73;43.94;99252.28;5037580;28;45399;-72
2022/10/23 05:02:31;;;;;;;;;1.67;0.00;;;;;22.60;43.28;99235.94;5038014;28;45399;-72
2022/10/23 05:04:57;;;;;;;;;1.33;1.00;;;;;22.71;43.48;99241.69;5037424;28;45225;-72
2022/10/23 05:07:22;;;;;;;;;1.00;1.00;;;;;22.66;43.29;99210.88;5036646;28;45435;-72
2022/10/23 05:09:48;;;;;;;;;2.00;1.00;;;;;22.77;42.50;99217.47;5037577;28;46254;-72
2022/10/23 05:12:13;;;;;;;;;1.00;1.00;;;;;22.63;43.06;99198.56;5037618;28;45413;-72
2022/10/23 05:14:39;;;;;;;;;3.00;2.00;;;;;22.62;43.50;99221.66;5036590;28;45491;-72
2022/10/23 05:17:19;;;;;;;;;1.00;1.00;;;;;22.63;43.26;99220.72;5036355;28;45344;-72
2022/10/23 05:19:51;;;;;;;;;1.00;1.00;;;;;22.54;43.00;99220.22;5036187;28;46841;-73
2022/10/23 05:22:19;;;;;;;;;1.00;1.00;;;;;22.60;43.08;99231.50;5035886;28;45902;-72
2022/10/23 05:24:45;;;;;;;;;1.00;0.00;;;;;22.70;42.75;99250.63;5034050;28;45234;-73
2022/10/23 05:27:11;;;;;;;;;1.33;1.00;;;;;22.71;43.08;99259.47;5035984;28;45586;-72
2022/10/23 05:29:36;;;;;;;;;2.00;0.33;;;;;22.65;42.85;99249.94;5036455;28;45510;-72
2022/10/23 05:32:05;;;;;;;;;0.67;0.67;;;;;22.82;42.39;99282.06;5036329;28;45588;-72
2022/10/23 05:34:34;;;;;;;;;0.00;0.00;;;;;22.83;42.77;99291.78;5036230;28;45458;-72
2022/10/23 05:37:01;;;;;;;;;2.33;1.00;;;;;22.79;43.31;99294.63;5034266;28;45433;-72
2022/10/23 05:39:27;;;;;;;;;1.33;1.00;;;;;22.77;42.86;99301.81;5035050;28;46296;-72
2022/10/23 05:41:53;;;;;;;;;2.00;1.00;;;;;22.81;43.05;99280.31;5036383;28;45319;-72
2022/10/23 05:44:20;;;;;;;;;1.00;1.00;;;;;22.89;42.35;99273.84;5035252;28;45529;-73
2022/10/23 05:46:45;;;;;;;;;2.00;2.00;;;;;22.81;42.31;99250.19;5036432;28;45461;-71
2022/10/23 05:49:11;;;;;;;;;2.33;2.00;;;;;22.78;42.43;99243.19;5036251;28;46437;-72
2022/10/23 05:51:38;;;;;;;;;1.67;1.00;;;;;22.94;42.31;99266.50;5035701;28;45330;-72
2022/10/23 05:54:07;;;;;;;;;1.00;1.00;;;;;22.98;42.74;99284.13;5036341;28;45494;-72
2022/10/23 05:56:35;;;;;;;;;3.33;1.33;;;;;22.86;42.62;99280.16;5051799;28;45609;-71
2022/10/23 05:59:00;;;;;;;;;2.00;1.00;;;;;22.92;42.92;99274.56;5051450;28;45815;-72
2022/10/23 06:01:26;;;;;;;;;1.33;1.00;;;;;22.80;42.75;99281.28;5036047;28;45445;-73
2022/10/23 06:03:51;;;;;;;;;2.00;1.33;;;;;22.79;43.04;99274.19;5036308;28;45549;-72
2022/10/23 06:06:17;;;;;;;;;2.33;2.00;;;;;22.90;43.00;99267.56;5036202;28;45372;-72
2022/10/23 06:08:42;;;;;;;;;1.00;1.00;;;;;23.02;42.59;99285.75;5037174;28;46303;-75
2022/10/23 06:11:10;;;;;;;;;1.00;1.00;;;;;22.90;43.18;99286.19;5036786;28;45380;-73
2022/10/23 06:13:36;;;;;;;;;4.00;1.00;;;;;22.81;42.76;99243.06;5036745;28;45470;-72
2022/10/23 06:16:13;;;;;;;;;1.00;1.00;;;;;22.98;42.72;99282.31;5036770;28;45438;-73
2022/10/23 06:18:38;;;;;;;;;1.33;1.00;;;;;22.88;43.05;99254.34;5036548;28;46708;-73
2022/10/23 06:21:04;;;;;;;;;0.33;0.33;;;;;22.79;42.80;99236.06;5036714;28;45399;-72
2022/10/23 06:23:35;;;;;;;;;2.00;1.00;;;;;22.96;42.86;99259.31;5036897;28;45266;-75
2022/10/23 06:26:01;;;;;;;;;2.00;1.00;;;;;22.96;42.89;99280.63;5036888;28;45368;-74
2022/10/23 06:28:27;;;;;;;;;1.00;1.00;;;;;22.91;42.63;99287.94;5036224;28;46509;-73
2022/10/23 06:30:53;;;;;;;;;1.67;1.33;;;;;22.88;42.56;99277.41;5035297;28;45461;-76
2022/10/23 06:33:19;;;;;;;;;1.00;1.00;;;;;22.87;42.39;99295.19;5031426;28;45637;-76
2022/10/23 06:35:44;;;;;;;;;1.33;1.33;;;;;22.97;41.93;99298.34;5036316;28;45411;-73
2022/10/23 06:38:10;;;;;;;;;1.00;1.00;;;;;23.05;41.89;99298.94;5035452;28;46850;-75
2022/10/23 06:40:36;;;;;;;;;2.00;1.00;;;;;23.05;42.03;99322.03;5035446;28;45351;-72
2022/10/23 06:43:04;;;;;;;;;1.00;1.00;;;;;22.83;42.46;99286.44;5034643;28;45428;-72
2022/10/23 06:45:35;;;;;;;;;2.00;1.00;;;;;22.97;42.11;99283.22;5035757;28;45414;-71
2022/10/23 06:48:01;;;;;;;;;2.33;1.67;;;;;23.09;41.88;99305.00;5033258;28;45627;-70
2022/10/23 06:50:29;;;;;;;;;1.33;1.00;;;;;23.07;42.19;99302.41;5035875;28;45593;-73
2022/10/23 06:52:55;;;;;;;;;2.00;1.67;;;;;23.09;42.11;99291.69;5036353;28;45403;-74
2022/10/23 06:55:21;;;;;;;;;0.67;0.67;;;;;23.30;41.50;99312.09;5036211;28;45520;-75
2022/10/23 06:57:47;;;;;;;;;3.00;1.33;;;;;23.42;40.67;99316.06;5035023;28;46037;-74
2022/10/23 07:00:13;;;;;;;;;1.00;1.00;;;;;23.45;41.10;99310.56;5036490;28;45422;-73
2022/10/23 07:02:39;;;;;;;;;2.00;1.00;;;;;23.42;41.31;99313.38;5036149;28;45271;-72
2022/10/23 07:05:04;;;;;;;;;2.00;2.00;;;;;23.53;41.02;99297.78;5036504;28;45296;-74
2022/10/23 07:07:30;;;;;;;;;2.00;1.00;;;;;23.55;40.61;99309.25;5035889;28;45332;-74
2022/10/23 07:09:56;;;;;;;;;3.00;1.00;;;;;23.53;41.19;99336.91;5034861;28;45454;-73
2022/10/23 07:12:22;;;;;;;;;2.33;1.67;;;;;23.43;41.01;99285.78;5036224;28;45488;-73
2022/10/23 07:14:47;;;;;;;;;1.00;1.00;;;;;23.24;40.49;99283.06;5036677;28;45298;-74
2022/10/23 07:17:13;;;;;;;;;1.67;1.00;;;;;23.64;40.94;99326.66;5034541;28;46915;-73
2022/10/23 07:19:38;;;;;;;;;1.67;1.00;;;;;23.66;40.61;99326.59;5038966;28;45352;-73
2022/10/23 07:22:04;;;;;;;;;2.67;2.00;;;;;23.71;40.82;99322.78;5039487;28;45319;-73
2022/10/23 07:24:30;;;;;;;;;2.00;2.00;;;;;23.85;40.49;99326.69;5039565;28;45505;-76
2022/10/23 07:26:57;;;;;;;;;1.00;0.33;;;;;24.02;40.39;99327.66;5037706;28;46924;-73
2022/10/23 07:29:23;;;;;;;;;2.00;2.00;;;;;24.14;39.58;99330.72;5039253;28;45544;-77
2022/10/23 07:31:48;;;;;;;;;1.00;1.00;;;;;24.16;39.65;99328.84;5039218;28;45460;-77
2022/10/23 07:34:14;;;;;;;;;2.00;1.00;;;;;24.38;39.66;99334.94;5039443;28;45367;-73
2022/10/23 07:36:40;;;;;;;;;2.33;1.00;;;;;24.61;39.11;99333.91;5039101;28;45351;-78
2022/10/23 07:39:05;;;;;;;;;1.00;1.00;;;;;24.80;38.61;99322.31;5039130;28;45567;-74
2022/10/23 07:41:31;;;;;;;;;2.00;2.00;;;;;24.91;38.46;99321.78;5039187;28;45328;-74
2022/10/23 07:43:57;;;;;;;;;0.00;0.00;;;;;25.94;36.24;99325.56;5039287;28;45427;-74
2022/10/23 07:46:22;;;;;;;;;2.00;1.00;;;;;28.42;33.00;99321.13;5038560;28;45427;-73
2022/10/23 07:48:48;;;;;;;;;1.33;1.33;;;;;29.84;29.88;99294.72;5037795;28;45380;-74
2022/10/23 07:51:15;;;;;;;;;2.00;1.00;;;;;30.50;29.49;99348.44;5038890;28;45476;-73
2022/10/23 07:53:42;;;;;;;;;2.00;2.00;;;;;30.08;30.08;99347.81;5036877;28;45510;-74
2022/10/23 07:56:17;;;;;;;;;0.67;0.33;;;;;29.12;30.64;99339.94;5037801;28;45702;-74
2022/10/23 07:58:43;;;;;;;;;1.33;1.00;;;;;30.21;29.11;99346.00;5037794;28;45454;-74
2022/10/23 08:01:24;;;;;;;;;2.00;2.00;;;;;31.79;27.40;99357.78;5038135;28;45536;-74
2022/10/23 08:03:50;;;;;;;;;2.00;1.00;;;;;33.07;25.81;99366.63;5038047;28;45511;-73
2022/10/23 08:06:15;;;;;;;;;1.67;1.67;;;;;32.87;25.79;99333.09;5037927;28;46125;-73
2022/10/23 08:08:41;;;;;;;;;1.67;1.67;;;;;32.75;25.76;99340.38;5038247;28;45821;-74
2022/10/23 08:11:09;;;;;;;;;1.00;1.00;;;;;32.78;25.90;99366.28;5035294;28;45446;-72
2022/10/23 08:13:35;;;;;;;;;0.33;0.33;;;;;32.73;25.51;99330.66;5038205;28;45493;-74
2022/10/23 08:16:01;;;;;;;;;1.00;1.00;;;;;31.65;26.80;99344.50;5036578;28;45828;-76
2022/10/23 08:18:26;;;;;;;;;0.00;0.00;;;;;30.51;28.28;99351.03;5036203;28;45344;-72
2022/10/23 08:20:52;;;;;;;;;1.67;1.00;;;;;29.57;30.20;99361.19;5034630;28;45421;-74
2022/10/23 08:23:18;;;;;;;;;5.33;3.67;;;;;28.81;30.87;99362.56;5035069;28;45680;-73
2022/10/23 08:25:45;;;;;;;;;11.33;10.33;;;;;28.64;31.09;99359.13;5031441;28;47830;-72
2022/10/23 08:28:11;;;;;;;;;1.00;1.00;;;;;28.52;31.46;99379.56;5036807;28;45385;-72
2022/10/23 08:30:36;;;;;;;;;1.00;1.00;;;;;28.15;31.92;99370.22;5035837;28;45502;-72
2022/10/23 08:33:03;;;;;;;;;2.33;2.00;;;;;27.71;32.88;99355.81;5052376;28;45560;-73
2022/10/23 08:35:29;;;;;;;;;2.33;0.33;;;;;27.18;33.39;99311.59;5036782;28;46506;-73
2022/10/23 08:37:55;;;;;;;;;2.00;1.33;;;;;27.75;33.20;99370.81;5037025;28;45411;-72
2022/10/23 08:40:24;;;;;;;;;1.00;1.00;;;;;28.26;32.50;99374.94;5036994;28;45481;-73
2022/10/23 08:42:58;;;;;;;;;0.00;0.00;;;;;28.98;31.98;99373.09;5037320;28;45442;-73
2022/10/23 08:45:35;;;;;;;;;1.00;0.33;;;;;28.80;31.54;99367.06;5034873;28;45922;-73
2022/10/23 08:48:17;;;;;;;;;2.00;1.00;;;;;28.40;32.53;99353.47;5036212;28;45509;-72
2022/10/23 08:50:52;;;;;;;;;2.00;2.00;;;;;28.67;31.98;99372.38;5033613;28;45618;-72
2022/10/23 08:53:28;;;;;;;;;2.67;2.00;;;;;28.39;32.49;99365.16;5033286;28;45363;-74
2022/10/23 08:56:02;;;;;;;;;2.00;2.00;;;;;28.00;32.98;99381.94;5033841;28;46072;-73
2022/10/23 08:58:41;;;;;;;;;2.00;1.33;;;;;27.71;33.12;99373.75;5035045;28;45563;-72
2022/10/23 09:01:45;;;;;;;;;0.00;0.00;;;;;27.64;33.74;99404.59;5052017;28;45603;-73
2022/10/23 09:04:12;;;;;;;;;2.33;2.00;;;;;27.10;34.15;99330.78;5036505;28;45463;-73
2022/10/23 09:07:17;;;;;;;;;2.33;1.00;;;;;26.86;34.56;99287.50;5034976;28;47527;-73
2022/10/23 09:09:51;;;;;;;;;1.33;1.00;;;;;27.10;34.66;99392.44;5032640;28;45346;-73
2022/10/23 09:12:21;;;;;;;;;0.67;0.67;;;;;26.74;35.41;99398.91;5035337;28;45734;-75
2022/10/23 09:15:01;;;;;;;;;1.33;1.33;;;;;26.67;36.36;99413.59;5035555;28;45566;-73
2022/10/23 09:17:38;;;;;;;;;2.00;2.00;;;;;26.53;36.71;99397.38;5034969;28;45649;-72
2022/10/23 09:20:34;;;;;;;;;2.00;2.00;;;;;26.35;36.91;99367.09;5036110;28;45878;-75
2022/10/23 09:23:21;;;;;;;;;1.00;1.00;;;;;26.36;36.51;99382.19;5060855;28;45408;-73
2022/10/23 09:25:49;;;;;;;;;1.67;1.00;;;;;26.46;35.99;99385.25;5034458;28;45338;-73
2022/10/23 09:28:20;;;;;;;;;1.67;1.00;;;;;26.65;36.12;99375.31;5036120;28;46085;-72
2022/10/23 09:30:47;;;;;;;;;1.00;1.00;;;;;27.05;34.93;99359.66;5035591;28;45468;-72
2022/10/23 09:33:17;;;;;;;;;0.00;0.00;;;;;27.23;34.42;99360.41;5050633;28;45517;-74
2022/10/23 09:36:08;;;;;;;;;0.00;0.00;;;;;27.61;34.08;99361.84;5034613;28;45492;-72
2022/10/23 09:38:38;;;;;;;;;2.00;1.00;;;;;27.85;33.31;99368.41;5016119;28;45787;-73
2022/10/23 09:41:18;;;;;;;;;2.00;1.00;;;;;27.91;33.58;99369.91;5031070;28;45698;-72
2022/10/23 09:43:43;;;;;;;;;1.33;0.67;;;;;28.20;33.14;99357.38;5033931;28;45285;-72
2022/10/23 09:46:10;;;;;;;;;1.33;1.00;;;;;28.86;32.14;99347.00;5031065;28;45682;-72
2022/10/23 09:48:38;;;;;;;;;0.00;0.00;;;;;29.03;31.17;99364.72;5033562;28;45563;-72
2022/10/23 09:51:13;;;;;;;;;2.00;2.00;;;;;29.52;29.93;99364.19;5033880;28;46618;-72
2022/10/23 09:53:47;;;;;;;;;0.33;0.00;;;;;29.51;29.96;99368.72;5033041;28;45189;-72
2022/10/23 09:56:49;;;;;;;;;0.00;0.00;;;;;29.49;30.34;99373.31;5035657;28;45702;-74
2022/10/23 09:59:14;;;;;;;;;0.00;0.00;;;;;29.21;29.80;99365.34;5034723;28;45479;-74
2022/10/23 10:01:58;;;;;;;;;1.00;0.33;;;;;29.13;30.18;99364.06;5036119;28;45352;-72
2022/10/23 10:04:38;;;;;;;;;0.00;0.00;;;;;29.26;30.05;99380.22;5036371;28;45537;-73
2022/10/23 10:07:14;;;;;;;;;0.00;0.00;;;;;29.26;29.51;99363.25;5034452;28;45461;-74
2022/10/23 10:09:40;;;;;;;;;0.00;0.00;;;;;29.58;28.98;99360.22;5035614;28;45554;-76
2022/10/23 10:12:13;;;;;;;;;0.33;0.00;;;;;29.83;29.33;99368.38;5035495;28;45493;-74
2022/10/23 10:14:52;;;;;;;;;3.67;3.67;;;;;30.10;28.88;99373.69;5035963;28;45446;-73
2022/10/23 10:17:41;;;;;;;;;1.67;1.67;;;;;30.56;28.79;99383.06;5035975;28;45172;-73
2022/10/23 10:20:42;;;;;;;;;1.00;0.00;;;;;30.88;27.98;99378.06;5035897;28;45428;-74
2022/10/23 10:23:27;;;;;;;;;0.00;0.00;;;;;30.75;27.88;99369.13;4994828;28;45594;-75
2022/10/23 10:26:17;;;;;;;;;0.00;0.00;;;;;30.81;27.94;99416.34;5059128;28;45655;-76
2022/10/23 10:28:56;;;;;;;;;0.00;0.00;;;;;30.55;28.09;99402.03;5059923;28;46387;-75
2022/10/23 10:31:37;;;;;;;;;0.00;0.00;;;;;30.82;28.14;99434.22;5033799;28;46756;-75
2022/10/23 10:34:13;;;;;;;;;0.00;0.00;;;;;30.79;27.61;99429.06;5034190;28;45610;-75
2022/10/23 10:36:50;;;;;;;;;0.00;0.00;;;;;30.78;28.19;99430.03;5034530;28;45365;-76
2022/10/23 10:39:54;;;;;;;;;0.67;0.67;;;;;30.76;28.13;99451.72;5035966;28;45446;-76
2022/10/23 10:42:23;;;;;;;;;1.00;0.00;;;;;30.48;28.23;99452.81;4990464;28;45527;-75
2022/10/23 10:44:48;;;;;;;;;0.33;0.33;;;;;30.46;27.98;99457.44;5047634;28;45522;-73
2022/10/23 10:47:32;;;;;;;;;0.00;0.00;;;;;30.31;27.77;99452.16;5047908;28;45384;-73
2022/10/23 10:50:01;;;;;;;;;0.33;0.00;;;;;29.94;28.52;99468.13;5016499;28;45486;-74
2022/10/23 10:52:26;;;;;;;;;1.00;0.00;;;;;29.71;28.47;99458.00;5016971;28;45372;-73
2022/10/23 10:54:52;;;;;;;;;0.00;0.00;;;;;29.57;28.74;99468.84;5021041;28;45353;-75
2022/10/23 10:57:41;;;;;;;;;0.00;0.00;;;;;29.28;29.12;99447.38;5038194;28;45668;-75
2022/10/23 11:00:21;;;;;;;;;0.00;0.00;;;;;29.22;29.01;99428.94;5054505;28;45601;-74
2022/10/23 11:02:52;;;;;;;;;0.00;0.00;;;;;29.16;28.82;99427.53;5039104;28;45530;-74
2022/10/23 11:05:36;;;;;;;;;0.00;0.00;;;;;29.24;28.39;99425.19;5037787;28;45463;-74
2022/10/23 11:08:15;;;;;;;;;0.00;0.00;;;;;29.29;28.43;99409.63;5037787;28;45419;-74
2022/10/23 11:10:45;;;;;;;;;0.00;0.00;;;;;29.35;28.78;99409.22;5054662;28;45566;-73
2022/10/23 11:13:32;;;;;;;;;0.00;0.00;;;;;29.52;28.54;99440.38;5038753;28;46592;-73
2022/10/23 11:16:05;;;;;;;;;0.00;0.00;;;;;29.40;28.51;99441.19;5019275;28;45299;-73
2022/10/23 11:18:33;;;;;;;;;0.00;0.00;;;;;29.20;29.04;99425.50;5018791;28;45509;-74
2022/10/23 11:21:25;;;;;;;;;0.00;0.00;;;;;29.03;29.54;99448.94;5050380;28;45478;-73
2022/10/23 11:24:03;;;;;;;;;0.00;0.00;;;;;28.87;29.40;99424.88;5020544;28;45452;-72
2022/10/23 11:26:46;;;;;;;;;1.00;0.00;;;;;28.19;30.08;99349.44;5054337;28;45391;-74
2022/10/23 11:29:30;;;;;;;;;0.00;0.00;;;;;28.66;29.79;99428.91;5038430;28;45381;-74
2022/10/23 11:32:17;;;;;;;;;0.00;0.00;;;;;28.58;30.30;99447.34;5053876;28;45558;-74
2022/10/23 11:34:57;;;;;;;;;0.00;0.00;;;;;28.48;30.59;99461.28;5038299;28;46543;-74
2022/10/23 11:37:25;;;;;;;;;0.00;0.00;;;;;28.70;30.48;99455.47;5038666;28;45459;-74
2022/10/23 11:40:00;;;;;;;;;0.00;0.00;;;;;28.78;29.75;99483.72;5038740;28;45277;-75
2022/10/23 11:42:31;;;;;;;;;0.00;0.00;;;;;28.53;29.18;99482.53;5053314;28;45665;-74
2022/10/23 11:44:56;;;;;;;;;0.00;0.00;;;;;28.49;29.80;99465.72;5038747;28;45328;-74
2022/10/23 11:47:35;;;;;;;;;0.00;0.00;;;;;28.66;29.80;99478.13;5053828;28;45528;-74
2022/10/23 11:50:07;;;;;;;;;0.00;0.00;;;;;28.83;29.73;99478.88;5053384;28;45370;-74
2022/10/23 11:52:38;;;;;;;;;1.33;1.33;;;;;28.61;29.76;99477.56;5037947;28;45529;-76